sensor_id;sensor_type;location;lat;lon;timestamp;P1;durP1;ratioP1;P2;durP2;ratioP2
14247;SDS011;7208;49.826;6.004;2022-12-07T00:01:44;14.93;;;10.80;;
14247;SDS011;7208;49.826;6.004;2022-12-07T00:04:11;15.57;;;10.83;;
14247;SDS011;7208;49.826;6.004;2022-12-07T00:06:38;16.30;;;11.17;;
14247;SDS011;7208;49.826;6.004;2022-12-07T00:09:06;14.10;;;9.13;;
14247;SDS011;7208;49.826;6.004;2022-12-07T00:11:32;16.53;;;10.77;;
14247;SDS011;7208;49.826;6.004;2022-12-07T00:13:59;15.63;;;9.07;;
14247;SDS011;7208;49.826;6.004;2022-12-07T00:16:27;14.73;;;9.37;;
14247;SDS011;7208;49.826;6.004;2022-12-07T00:18:53;18.87;;;10.67;;
14247;SDS011;7208;49.826;6.004;2022-12-07T00:21:20;14.83;;;9.87;;
14247;SDS011;7208;49.826;6.004;2022-12-07T00:23:49;20.10;;;11.33;;
14247;SDS011;7208;49.826;6.004;2022-12-07T00:26:20;15.23;;;10.03;;
14247;SDS011;7208;49.826;6.004;2022-12-07T00:28:47;13.23;;;9.33;;
14247;SDS011;7208;49.826;6.004;2022-12-07T00:31:13;16.73;;;10.87;;
14247;SDS011;7208;49.826;6.004;2022-12-07T00:33:39;13.93;;;9.27;;
14247;SDS011;7208;49.826;6.004;2022-12-07T00:36:06;14.90;;;10.20;;
14247;SDS011;7208;49.826;6.004;2022-12-07T00:38:33;15.93;;;10.67;;
14247;SDS011;7208;49.826;6.004;2022-12-07T00:41:01;16.23;;;9.50;;
14247;SDS011;7208;49.826;6.004;2022-12-07T00:43:27;20.10;;;10.87;;
14247;SDS011;7208;49.826;6.004;2022-12-07T00:45:54;15.37;;;10.47;;
14247;SDS011;7208;49.826;6.004;2022-12-07T00:48:20;14.83;;;10.20;;
14247;SDS011;7208;49.826;6.004;2022-12-07T00:50:46;16.63;;;11.90;;
14247;SDS011;7208;49.826;6.004;2022-12-07T00:53:12;18.10;;;10.57;;
14247;SDS011;7208;49.826;6.004;2022-12-07T00:55:38;17.10;;;11.90;;
14247;SDS011;7208;49.826;6.004;2022-12-07T00:58:04;16.67;;;10.83;;
14247;SDS011;7208;49.826;6.004;2022-12-07T01:00:30;18.10;;;11.37;;
14247;SDS011;7208;49.826;6.004;2022-12-07T01:02:56;16.30;;;10.80;;
14247;SDS011;7208;49.826;6.004;2022-12-07T01:05:23;13.87;;;10.33;;
14247;SDS011;7208;49.826;6.004;2022-12-07T01:07:48;13.10;;;10.43;;
14247;SDS011;7208;49.826;6.004;2022-12-07T01:10:14;14.47;;;9.83;;
14247;SDS011;7208;49.826;6.004;2022-12-07T01:12:40;11.70;;;10.30;;
14247;SDS011;7208;49.826;6.004;2022-12-07T01:15:07;14.50;;;10.27;;
14247;SDS011;7208;49.826;6.004;2022-12-07T01:17:33;12.77;;;10.70;;
14247;SDS011;7208;49.826;6.004;2022-12-07T01:20:00;13.37;;;10.70;;
14247;SDS011;7208;49.826;6.004;2022-12-07T01:22:26;13.40;;;9.83;;
14247;SDS011;7208;49.826;6.004;2022-12-07T01:24:52;14.43;;;10.03;;
14247;SDS011;7208;49.826;6.004;2022-12-07T01:27:18;10.83;;;9.63;;
14247;SDS011;7208;49.826;6.004;2022-12-07T01:29:44;15.03;;;10.10;;
14247;SDS011;7208;49.826;6.004;2022-12-07T01:32:10;12.73;;;10.37;;
14247;SDS011;7208;49.826;6.004;2022-12-07T01:34:36;14.33;;;10.10;;
14247;SDS011;7208;49.826;6.004;2022-12-07T01:37:02;12.23;;;9.77;;
14247;SDS011;7208;49.826;6.004;2022-12-07T01:39:28;10.87;;;8.80;;
14247;SDS011;7208;49.826;6.004;2022-12-07T01:41:54;9.50;;;7.60;;
14247;SDS011;7208;49.826;6.004;2022-12-07T01:46:48;7.73;;;6.93;;
14247;SDS011;7208;49.826;6.004;2022-12-07T01:49:16;10.63;;;7.97;;
14247;SDS011;7208;49.826;6.004;2022-12-07T01:51:42;10.27;;;8.10;;
14247;SDS011;7208;49.826;6.004;2022-12-07T01:54:09;9.97;;;8.27;;
14247;SDS011;7208;49.826;6.004;2022-12-07T01:56:36;10.63;;;8.40;;
14247;SDS011;7208;49.826;6.004;2022-12-07T01:59:03;9.93;;;8.10;;
14247;SDS011;7208;49.826;6.004;2022-12-07T02:01:29;10.40;;;8.03;;
14247;SDS011;7208;49.826;6.004;2022-12-07T02:03:55;10.53;;;8.00;;
14247;SDS011;7208;49.826;6.004;2022-12-07T02:06:22;11.03;;;8.03;;
14247;SDS011;7208;49.826;6.004;2022-12-07T02:08:50;9.30;;;7.27;;
14247;SDS011;7208;49.826;6.004;2022-12-07T02:11:16;8.03;;;6.53;;
14247;SDS011;7208;49.826;6.004;2022-12-07T02:13:42;8.57;;;7.23;;
14247;SDS011;7208;49.826;6.004;2022-12-07T02:21:41;9.03;;;7.00;;
14247;SDS011;7208;49.826;6.004;2022-12-07T02:24:15;8.23;;;7.27;;
14247;SDS011;7208;49.826;6.004;2022-12-07T02:29:38;10.60;;;7.87;;
14247;SDS011;7208;49.826;6.004;2022-12-07T02:34:50;8.90;;;7.17;;
14247;SDS011;7208;49.826;6.004;2022-12-07T02:42:36;7.17;;;6.03;;
14247;SDS011;7208;49.826;6.004;2022-12-07T02:45:04;9.13;;;6.77;;
14247;SDS011;7208;49.826;6.004;2022-12-07T02:47:31;7.93;;;6.57;;
14247;SDS011;7208;49.826;6.004;2022-12-07T02:49:59;6.80;;;5.63;;
14247;SDS011;7208;49.826;6.004;2022-12-07T02:52:25;10.43;;;7.13;;
14247;SDS011;7208;49.826;6.004;2022-12-07T02:54:51;8.17;;;7.00;;
14247;SDS011;7208;49.826;6.004;2022-12-07T03:00:16;10.20;;;6.40;;
14247;SDS011;7208;49.826;6.004;2022-12-07T03:02:49;8.33;;;6.73;;
14247;SDS011;7208;49.826;6.004;2022-12-07T03:08:02;5.83;;;5.17;;
14247;SDS011;7208;49.826;6.004;2022-12-07T03:10:33;8.60;;;6.47;;
14247;SDS011;7208;49.826;6.004;2022-12-07T03:15:40;8.73;;;6.30;;
14247;SDS011;7208;49.826;6.004;2022-12-07T03:18:09;8.57;;;7.07;;
14247;SDS011;7208;49.826;6.004;2022-12-07T03:20:36;7.00;;;5.20;;
14247;SDS011;7208;49.826;6.004;2022-12-07T03:23:03;8.73;;;6.63;;
14247;SDS011;7208;49.826;6.004;2022-12-07T03:25:30;9.40;;;7.30;;
14247;SDS011;7208;49.826;6.004;2022-12-07T03:28:01;11.33;;;8.03;;
14247;SDS011;7208;49.826;6.004;2022-12-07T03:30:33;10.00;;;8.20;;
14247;SDS011;7208;49.826;6.004;2022-12-07T03:33:02;10.83;;;8.17;;
14247;SDS011;7208;49.826;6.004;2022-12-07T03:35:34;9.97;;;7.50;;
14247;SDS011;7208;49.826;6.004;2022-12-07T03:38:22;10.37;;;7.77;;
14247;SDS011;7208;49.826;6.004;2022-12-07T03:40:50;11.03;;;8.07;;
14247;SDS011;7208;49.826;6.004;2022-12-07T03:43:20;14.07;;;8.07;;
14247;SDS011;7208;49.826;6.004;2022-12-07T03:55:46;9.80;;;6.60;;
14247;SDS011;7208;49.826;6.004;2022-12-07T03:58:15;8.93;;;6.63;;
14247;SDS011;7208;49.826;6.004;2022-12-07T04:00:42;10.63;;;7.77;;
14247;SDS011;7208;49.826;6.004;2022-12-07T04:03:09;9.47;;;7.97;;
14247;SDS011;7208;49.826;6.004;2022-12-07T04:05:35;9.00;;;7.43;;
14247;SDS011;7208;49.826;6.004;2022-12-07T04:08:01;10.17;;;7.20;;
14247;SDS011;7208;49.826;6.004;2022-12-07T04:10:27;9.03;;;7.83;;
14247;SDS011;7208;49.826;6.004;2022-12-07T04:12:53;10.33;;;7.23;;
14247;SDS011;7208;49.826;6.004;2022-12-07T04:15:19;10.60;;;7.53;;
14247;SDS011;7208;49.826;6.004;2022-12-07T04:17:45;10.33;;;7.47;;
14247;SDS011;7208;49.826;6.004;2022-12-07T04:20:12;10.57;;;7.50;;
14247;SDS011;7208;49.826;6.004;2022-12-07T04:22:38;10.67;;;8.80;;
14247;SDS011;7208;49.826;6.004;2022-12-07T04:25:04;9.57;;;7.60;;
14247;SDS011;7208;49.826;6.004;2022-12-07T04:27:30;9.10;;;7.77;;
14247;SDS011;7208;49.826;6.004;2022-12-07T04:29:56;13.87;;;8.67;;
14247;SDS011;7208;49.826;6.004;2022-12-07T04:32:23;9.27;;;7.40;;
14247;SDS011;7208;49.826;6.004;2022-12-07T04:34:49;11.53;;;8.73;;
14247;SDS011;7208;49.826;6.004;2022-12-07T04:37:16;10.43;;;7.30;;
14247;SDS011;7208;49.826;6.004;2022-12-07T04:39:42;10.83;;;7.80;;
14247;SDS011;7208;49.826;6.004;2022-12-07T04:42:09;8.80;;;7.20;;
14247;SDS011;7208;49.826;6.004;2022-12-07T04:44:35;12.10;;;7.30;;
14247;SDS011;7208;49.826;6.004;2022-12-07T04:47:02;9.03;;;6.87;;
14247;SDS011;7208;49.826;6.004;2022-12-07T04:49:28;9.03;;;6.63;;
14247;SDS011;7208;49.826;6.004;2022-12-07T04:51:54;11.37;;;7.57;;
14247;SDS011;7208;49.826;6.004;2022-12-07T04:54:20;9.77;;;6.73;;
14247;SDS011;7208;49.826;6.004;2022-12-07T04:56:46;8.73;;;7.77;;
14247;SDS011;7208;49.826;6.004;2022-12-07T04:59:12;10.73;;;7.50;;
14247;SDS011;7208;49.826;6.004;2022-12-07T05:01:39;10.97;;;8.20;;
14247;SDS011;7208;49.826;6.004;2022-12-07T05:04:05;11.50;;;7.90;;
14247;SDS011;7208;49.826;6.004;2022-12-07T05:06:31;11.43;;;7.83;;
14247;SDS011;7208;49.826;6.004;2022-12-07T05:08:57;8.60;;;7.37;;
14247;SDS011;7208;49.826;6.004;2022-12-07T05:11:23;8.33;;;6.77;;
14247;SDS011;7208;49.826;6.004;2022-12-07T05:16:34;9.97;;;7.27;;
14247;SDS011;7208;49.826;6.004;2022-12-07T05:19:00;9.13;;;7.37;;
14247;SDS011;7208;49.826;6.004;2022-12-07T05:21:26;10.03;;;7.73;;
14247;SDS011;7208;49.826;6.004;2022-12-07T05:23:52;11.87;;;8.07;;
14247;SDS011;7208;49.826;6.004;2022-12-07T05:26:18;8.83;;;7.00;;
14247;SDS011;7208;49.826;6.004;2022-12-07T05:28:44;9.53;;;7.33;;
14247;SDS011;7208;49.826;6.004;2022-12-07T05:31:10;10.30;;;7.63;;
14247;SDS011;7208;49.826;6.004;2022-12-07T05:33:36;12.00;;;8.13;;
14247;SDS011;7208;49.826;6.004;2022-12-07T05:36:02;13.30;;;7.93;;
14247;SDS011;7208;49.826;6.004;2022-12-07T05:38:31;12.43;;;7.73;;
14247;SDS011;7208;49.826;6.004;2022-12-07T05:41:00;9.33;;;6.77;;
14247;SDS011;7208;49.826;6.004;2022-12-07T05:43:26;9.70;;;7.47;;
14247;SDS011;7208;49.826;6.004;2022-12-07T05:45:52;11.43;;;7.90;;
14247;SDS011;7208;49.826;6.004;2022-12-07T05:48:18;10.80;;;7.00;;
14247;SDS011;7208;49.826;6.004;2022-12-07T05:50:47;10.60;;;7.07;;
14247;SDS011;7208;49.826;6.004;2022-12-07T05:53:13;9.70;;;6.50;;
14247;SDS011;7208;49.826;6.004;2022-12-07T05:55:39;8.07;;;6.43;;
14247;SDS011;7208;49.826;6.004;2022-12-07T05:58:05;9.00;;;6.53;;
14247;SDS011;7208;49.826;6.004;2022-12-07T06:00:50;9.47;;;6.80;;
14247;SDS011;7208;49.826;6.004;2022-12-07T06:03:16;8.83;;;6.43;;
14247;SDS011;7208;49.826;6.004;2022-12-07T06:05:42;9.23;;;6.30;;
14247;SDS011;7208;49.826;6.004;2022-12-07T06:08:08;8.50;;;7.03;;
14247;SDS011;7208;49.826;6.004;2022-12-07T06:10:34;11.43;;;6.97;;
14247;SDS011;7208;49.826;6.004;2022-12-07T06:13:00;8.70;;;6.70;;
14247;SDS011;7208;49.826;6.004;2022-12-07T06:15:26;8.53;;;6.93;;
14247;SDS011;7208;49.826;6.004;2022-12-07T06:17:52;8.03;;;6.10;;
14247;SDS011;7208;49.826;6.004;2022-12-07T06:20:18;7.07;;;5.63;;
14247;SDS011;7208;49.826;6.004;2022-12-07T06:22:44;5.80;;;5.20;;
14247;SDS011;7208;49.826;6.004;2022-12-07T06:25:10;7.70;;;6.10;;
14247;SDS011;7208;49.826;6.004;2022-12-07T06:27:36;6.17;;;5.17;;
14247;SDS011;7208;49.826;6.004;2022-12-07T06:30:02;5.53;;;4.73;;
14247;SDS011;7208;49.826;6.004;2022-12-07T06:32:33;5.77;;;4.77;;
14247;SDS011;7208;49.826;6.004;2022-12-07T06:34:59;4.87;;;4.33;;
14247;SDS011;7208;49.826;6.004;2022-12-07T06:37:26;5.47;;;4.77;;
14247;SDS011;7208;49.826;6.004;2022-12-07T06:39:52;4.73;;;4.17;;
14247;SDS011;7208;49.826;6.004;2022-12-07T06:42:18;5.37;;;4.70;;
14247;SDS011;7208;49.826;6.004;2022-12-07T06:44:44;5.33;;;4.73;;
14247;SDS011;7208;49.826;6.004;2022-12-07T06:47:10;6.27;;;5.10;;
14247;SDS011;7208;49.826;6.004;2022-12-07T06:49:36;5.93;;;5.13;;
14247;SDS011;7208;49.826;6.004;2022-12-07T06:52:02;5.97;;;4.90;;
14247;SDS011;7208;49.826;6.004;2022-12-07T06:54:29;5.93;;;4.40;;
14247;SDS011;7208;49.826;6.004;2022-12-07T06:56:55;7.00;;;4.90;;
14247;SDS011;7208;49.826;6.004;2022-12-07T06:59:21;9.03;;;5.57;;
14247;SDS011;7208;49.826;6.004;2022-12-07T07:01:47;7.20;;;5.50;;
14247;SDS011;7208;49.826;6.004;2022-12-07T07:04:13;6.60;;;5.43;;
14247;SDS011;7208;49.826;6.004;2022-12-07T07:06:39;7.73;;;5.93;;
14247;SDS011;7208;49.826;6.004;2022-12-07T07:09:06;6.43;;;5.37;;
14247;SDS011;7208;49.826;6.004;2022-12-07T07:11:32;8.03;;;5.63;;
14247;SDS011;7208;49.826;6.004;2022-12-07T07:13:58;8.50;;;5.73;;
14247;SDS011;7208;49.826;6.004;2022-12-07T07:16:27;9.27;;;5.40;;
14247;SDS011;7208;49.826;6.004;2022-12-07T07:18:54;9.13;;;6.27;;
14247;SDS011;7208;49.826;6.004;2022-12-07T07:21:20;7.40;;;5.63;;
14247;SDS011;7208;49.826;6.004;2022-12-07T07:23:46;11.17;;;6.23;;
14247;SDS011;7208;49.826;6.004;2022-12-07T07:26:12;7.40;;;5.63;;
14247;SDS011;7208;49.826;6.004;2022-12-07T07:28:38;6.07;;;5.30;;
14247;SDS011;7208;49.826;6.004;2022-12-07T07:31:04;12.87;;;6.33;;
14247;SDS011;7208;49.826;6.004;2022-12-07T07:33:30;7.97;;;5.60;;
14247;SDS011;7208;49.826;6.004;2022-12-07T07:35:56;8.77;;;6.93;;
14247;SDS011;7208;49.826;6.004;2022-12-07T07:38:22;7.37;;;5.87;;
14247;SDS011;7208;49.826;6.004;2022-12-07T07:40:48;7.80;;;6.07;;
14247;SDS011;7208;49.826;6.004;2022-12-07T07:43:14;6.67;;;5.97;;
14247;SDS011;7208;49.826;6.004;2022-12-07T07:45:40;8.07;;;5.23;;
14247;SDS011;7208;49.826;6.004;2022-12-07T07:48:06;7.23;;;6.37;;
14247;SDS011;7208;49.826;6.004;2022-12-07T07:50:32;7.30;;;6.17;;
14247;SDS011;7208;49.826;6.004;2022-12-07T07:52:58;9.23;;;6.60;;
14247;SDS011;7208;49.826;6.004;2022-12-07T07:55:24;8.43;;;6.00;;
14247;SDS011;7208;49.826;6.004;2022-12-07T07:57:50;10.40;;;6.90;;
14247;SDS011;7208;49.826;6.004;2022-12-07T08:00:16;7.83;;;5.90;;
14247;SDS011;7208;49.826;6.004;2022-12-07T08:02:43;8.17;;;5.80;;
14247;SDS011;7208;49.826;6.004;2022-12-07T08:05:12;9.63;;;6.00;;
14247;SDS011;7208;49.826;6.004;2022-12-07T08:07:39;9.97;;;6.67;;
14247;SDS011;7208;49.826;6.004;2022-12-07T08:10:05;6.30;;;4.97;;
14247;SDS011;7208;49.826;6.004;2022-12-07T08:12:35;5.93;;;4.67;;
14247;SDS011;7208;49.826;6.004;2022-12-07T08:15:01;6.47;;;4.87;;
14247;SDS011;7208;49.826;6.004;2022-12-07T08:17:27;6.73;;;5.00;;
14247;SDS011;7208;49.826;6.004;2022-12-07T08:19:53;6.50;;;4.50;;
14247;SDS011;7208;49.826;6.004;2022-12-07T08:22:19;6.93;;;4.97;;
14247;SDS011;7208;49.826;6.004;2022-12-07T08:24:45;10.27;;;5.00;;
14247;SDS011;7208;49.826;6.004;2022-12-07T08:27:11;6.90;;;5.00;;
14247;SDS011;7208;49.826;6.004;2022-12-07T08:29:37;5.77;;;4.63;;
14247;SDS011;7208;49.826;6.004;2022-12-07T08:32:03;7.13;;;5.63;;
14247;SDS011;7208;49.826;6.004;2022-12-07T08:34:29;6.83;;;4.53;;
14247;SDS011;7208;49.826;6.004;2022-12-07T08:36:55;7.13;;;4.87;;
14247;SDS011;7208;49.826;6.004;2022-12-07T08:39:21;6.97;;;5.10;;
14247;SDS011;7208;49.826;6.004;2022-12-07T08:41:47;6.33;;;4.90;;
14247;SDS011;7208;49.826;6.004;2022-12-07T08:44:13;4.80;;;4.30;;
14247;SDS011;7208;49.826;6.004;2022-12-07T08:46:40;5.30;;;4.80;;
14247;SDS011;7208;49.826;6.004;2022-12-07T08:49:20;6.40;;;4.53;;
14247;SDS011;7208;49.826;6.004;2022-12-07T08:51:49;8.07;;;5.20;;
14247;SDS011;7208;49.826;6.004;2022-12-07T08:54:16;7.23;;;5.40;;
14247;SDS011;7208;49.826;6.004;2022-12-07T08:56:43;6.80;;;4.80;;
14247;SDS011;7208;49.826;6.004;2022-12-07T08:59:09;6.27;;;4.50;;
14247;SDS011;7208;49.826;6.004;2022-12-07T09:01:36;6.17;;;4.90;;
14247;SDS011;7208;49.826;6.004;2022-12-07T09:04:02;7.00;;;4.70;;
14247;SDS011;7208;49.826;6.004;2022-12-07T09:06:28;6.63;;;4.77;;
14247;SDS011;7208;49.826;6.004;2022-12-07T09:08:56;7.47;;;4.60;;
14247;SDS011;7208;49.826;6.004;2022-12-07T09:11:24;6.20;;;4.70;;
14247;SDS011;7208;49.826;6.004;2022-12-07T09:13:49;6.43;;;4.70;;
14247;SDS011;7208;49.826;6.004;2022-12-07T09:16:15;6.50;;;4.17;;
14247;SDS011;7208;49.826;6.004;2022-12-07T09:18:41;5.63;;;3.43;;
14247;SDS011;7208;49.826;6.004;2022-12-07T09:21:08;5.87;;;4.00;;
14247;SDS011;7208;49.826;6.004;2022-12-07T09:23:34;5.60;;;4.57;;
14247;SDS011;7208;49.826;6.004;2022-12-07T09:26:00;4.40;;;3.60;;
14247;SDS011;7208;49.826;6.004;2022-12-07T09:28:27;5.13;;;4.37;;
14247;SDS011;7208;49.826;6.004;2022-12-07T09:30:53;5.90;;;4.63;;
14247;SDS011;7208;49.826;6.004;2022-12-07T09:33:19;5.20;;;4.27;;
14247;SDS011;7208;49.826;6.004;2022-12-07T09:35:45;4.97;;;4.47;;
14247;SDS011;7208;49.826;6.004;2022-12-07T09:38:11;5.50;;;4.37;;
14247;SDS011;7208;49.826;6.004;2022-12-07T09:40:38;6.97;;;4.17;;
14247;SDS011;7208;49.826;6.004;2022-12-07T09:43:04;4.57;;;3.70;;
14247;SDS011;7208;49.826;6.004;2022-12-07T09:45:34;5.17;;;4.50;;
14247;SDS011;7208;49.826;6.004;2022-12-07T09:48:02;7.93;;;4.40;;
14247;SDS011;7208;49.826;6.004;2022-12-07T09:50:28;4.33;;;3.93;;
14247;SDS011;7208;49.826;6.004;2022-12-07T09:53:05;7.37;;;4.27;;
14247;SDS011;7208;49.826;6.004;2022-12-07T09:55:33;4.47;;;3.70;;
14247;SDS011;7208;49.826;6.004;2022-12-07T09:57:59;5.87;;;4.50;;
14247;SDS011;7208;49.826;6.004;2022-12-07T10:00:25;5.30;;;4.17;;
14247;SDS011;7208;49.826;6.004;2022-12-07T10:05:40;6.33;;;3.90;;
14247;SDS011;7208;49.826;6.004;2022-12-07T10:08:07;6.07;;;3.77;;
14247;SDS011;7208;49.826;6.004;2022-12-07T10:10:34;5.90;;;3.63;;
14247;SDS011;7208;49.826;6.004;2022-12-07T10:18:24;4.23;;;3.13;;
14247;SDS011;7208;49.826;6.004;2022-12-07T10:20:59;4.23;;;2.63;;
14247;SDS011;7208;49.826;6.004;2022-12-07T10:23:25;4.40;;;3.43;;
14247;SDS011;7208;49.826;6.004;2022-12-07T10:25:51;3.20;;;2.73;;
14247;SDS011;7208;49.826;6.004;2022-12-07T10:28:20;4.20;;;3.27;;
14247;SDS011;7208;49.826;6.004;2022-12-07T10:33:37;4.93;;;3.23;;
14247;SDS011;7208;49.826;6.004;2022-12-07T10:36:16;3.17;;;2.50;;
14247;SDS011;7208;49.826;6.004;2022-12-07T10:38:47;3.87;;;3.13;;
14247;SDS011;7208;49.826;6.004;2022-12-07T10:41:13;5.33;;;3.10;;
14247;SDS011;7208;49.826;6.004;2022-12-07T10:43:46;3.60;;;2.83;;
14247;SDS011;7208;49.826;6.004;2022-12-07T10:51:46;2.63;;;2.40;;
14247;SDS011;7208;49.826;6.004;2022-12-07T11:02:13;2.23;;;1.80;;
14247;SDS011;7208;49.826;6.004;2022-12-07T11:09:47;3.00;;;2.40;;
14247;SDS011;7208;49.826;6.004;2022-12-07T11:12:20;2.00;;;1.80;;
14247;SDS011;7208;49.826;6.004;2022-12-07T11:15:00;2.33;;;2.07;;
14247;SDS011;7208;49.826;6.004;2022-12-07T11:20:15;2.10;;;1.70;;
14247;SDS011;7208;49.826;6.004;2022-12-07T11:28:06;1.83;;;1.73;;
14247;SDS011;7208;49.826;6.004;2022-12-07T11:30:39;1.80;;;1.70;;
14247;SDS011;7208;49.826;6.004;2022-12-07T11:33:16;2.43;;;1.73;;
14247;SDS011;7208;49.826;6.004;2022-12-07T11:35:46;1.90;;;1.80;;
14247;SDS011;7208;49.826;6.004;2022-12-07T11:38:20;4.90;;;2.00;;
14247;SDS011;7208;49.826;6.004;2022-12-07T11:40:48;1.77;;;1.67;;
14247;SDS011;7208;49.826;6.004;2022-12-07T11:43:18;3.60;;;1.97;;
14247;SDS011;7208;49.826;6.004;2022-12-07T11:46:08;1.87;;;1.67;;
14247;SDS011;7208;49.826;6.004;2022-12-07T11:48:33;1.60;;;1.50;;
14247;SDS011;7208;49.826;6.004;2022-12-07T11:51:01;1.57;;;1.33;;
14247;SDS011;7208;49.826;6.004;2022-12-07T12:06:37;1.50;;;1.30;;
14247;SDS011;7208;49.826;6.004;2022-12-07T12:19:00;2.60;;;1.27;;
14247;SDS011;7208;49.826;6.004;2022-12-07T12:21:29;2.07;;;1.50;;
14247;SDS011;7208;49.826;6.004;2022-12-07T12:26:29;2.37;;;1.60;;
14247;SDS011;7208;49.826;6.004;2022-12-07T12:29:00;1.50;;;1.40;;
14247;SDS011;7208;49.826;6.004;2022-12-07T12:33:57;2.37;;;1.47;;
14247;SDS011;7208;49.826;6.004;2022-12-07T12:51:51;2.83;;;1.20;;
14247;SDS011;7208;49.826;6.004;2022-12-07T12:59:34;2.10;;;1.30;;
14247;SDS011;7208;49.826;6.004;2022-12-07T13:04:51;2.50;;;1.50;;
14247;SDS011;7208;49.826;6.004;2022-12-07T13:10:02;1.53;;;1.33;;
14247;SDS011;7208;49.826;6.004;2022-12-07T13:12:29;1.60;;;1.20;;
14247;SDS011;7208;49.826;6.004;2022-12-07T13:14:58;2.60;;;1.67;;
14247;SDS011;7208;49.826;6.004;2022-12-07T13:18:22;1.80;;;1.13;;
14247;SDS011;7208;49.826;6.004;2022-12-07T13:20:39;2.43;;;1.20;;
14247;SDS011;7208;49.826;6.004;2022-12-07T13:22:57;2.07;;;1.37;;
14247;SDS011;7208;49.826;6.004;2022-12-07T13:25:33;3.60;;;1.37;;
14247;SDS011;7208;49.826;6.004;2022-12-07T13:28:02;2.60;;;1.30;;
14247;SDS011;7208;49.826;6.004;2022-12-07T13:30:28;2.93;;;1.70;;
14247;SDS011;7208;49.826;6.004;2022-12-07T13:32:56;2.10;;;1.73;;
14247;SDS011;7208;49.826;6.004;2022-12-07T13:35:33;2.77;;;1.73;;
14247;SDS011;7208;49.826;6.004;2022-12-07T13:38:01;2.50;;;1.10;;
14247;SDS011;7208;49.826;6.004;2022-12-07T13:40:28;2.07;;;1.23;;
14247;SDS011;7208;49.826;6.004;2022-12-07T13:42:58;2.03;;;1.40;;
14247;SDS011;7208;49.826;6.004;2022-12-07T13:45:25;2.03;;;1.60;;
14247;SDS011;7208;49.826;6.004;2022-12-07T13:48:31;2.40;;;1.87;;
14247;SDS011;7208;49.826;6.004;2022-12-07T13:50:58;2.87;;;2.10;;
14247;SDS011;7208;49.826;6.004;2022-12-07T13:53:25;3.47;;;2.03;;
14247;SDS011;7208;49.826;6.004;2022-12-07T13:55:55;4.87;;;1.93;;
14247;SDS011;7208;49.826;6.004;2022-12-07T13:58:21;3.67;;;2.23;;
14247;SDS011;7208;49.826;6.004;2022-12-07T14:00:48;3.03;;;1.83;;
14247;SDS011;7208;49.826;6.004;2022-12-07T14:05:41;2.83;;;2.43;;
14247;SDS011;7208;49.826;6.004;2022-12-07T14:10:41;2.17;;;1.97;;
14247;SDS011;7208;49.826;6.004;2022-12-07T14:15:53;2.33;;;1.80;;
14247;SDS011;7208;49.826;6.004;2022-12-07T14:18:38;2.27;;;2.03;;
14247;SDS011;7208;49.826;6.004;2022-12-07T14:21:14;2.23;;;1.67;;
14247;SDS011;7208;49.826;6.004;2022-12-07T14:23:42;3.37;;;1.80;;
14247;SDS011;7208;49.826;6.004;2022-12-07T14:26:15;3.73;;;2.07;;
14247;SDS011;7208;49.826;6.004;2022-12-07T14:28:42;2.03;;;1.80;;
14247;SDS011;7208;49.826;6.004;2022-12-07T14:31:13;4.37;;;2.00;;
14247;SDS011;7208;49.826;6.004;2022-12-07T14:33:39;3.10;;;1.70;;
14247;SDS011;7208;49.826;6.004;2022-12-07T14:36:07;3.13;;;2.00;;
14247;SDS011;7208;49.826;6.004;2022-12-07T14:38:34;2.97;;;2.27;;
14247;SDS011;7208;49.826;6.004;2022-12-07T14:41:00;3.10;;;2.67;;
14247;SDS011;7208;49.826;6.004;2022-12-07T14:43:45;4.60;;;2.30;;
14247;SDS011;7208;49.826;6.004;2022-12-07T14:46:11;4.30;;;2.60;;
14247;SDS011;7208;49.826;6.004;2022-12-07T14:48:37;4.30;;;2.40;;
14247;SDS011;7208;49.826;6.004;2022-12-07T14:51:03;5.60;;;2.80;;
14247;SDS011;7208;49.826;6.004;2022-12-07T14:53:30;2.67;;;2.30;;
14247;SDS011;7208;49.826;6.004;2022-12-07T14:55:59;4.23;;;2.53;;
14247;SDS011;7208;49.826;6.004;2022-12-07T14:58:25;3.60;;;2.07;;
14247;SDS011;7208;49.826;6.004;2022-12-07T15:00:51;3.23;;;1.97;;
14247;SDS011;7208;49.826;6.004;2022-12-07T15:03:17;4.37;;;2.10;;
14247;SDS011;7208;49.826;6.004;2022-12-07T15:05:43;4.60;;;2.33;;
14247;SDS011;7208;49.826;6.004;2022-12-07T15:08:10;5.30;;;2.13;;
14247;SDS011;7208;49.826;6.004;2022-12-07T15:10:37;3.77;;;2.30;;
14247;SDS011;7208;49.826;6.004;2022-12-07T15:13:05;2.73;;;2.37;;
14247;SDS011;7208;49.826;6.004;2022-12-07T15:15:50;2.47;;;2.10;;
14247;SDS011;7208;49.826;6.004;2022-12-07T15:18:17;2.83;;;2.07;;
14247;SDS011;7208;49.826;6.004;2022-12-07T15:20:43;2.33;;;2.13;;
14247;SDS011;7208;49.826;6.004;2022-12-07T15:23:10;4.33;;;2.30;;
14247;SDS011;7208;49.826;6.004;2022-12-07T15:25:36;2.80;;;2.20;;
14247;SDS011;7208;49.826;6.004;2022-12-07T15:28:02;2.47;;;1.80;;
14247;SDS011;7208;49.826;6.004;2022-12-07T15:30:28;4.53;;;2.07;;
14247;SDS011;7208;49.826;6.004;2022-12-07T15:32:54;2.87;;;2.27;;
14247;SDS011;7208;49.826;6.004;2022-12-07T15:35:20;4.97;;;2.43;;
14247;SDS011;7208;49.826;6.004;2022-12-07T15:37:46;4.77;;;2.03;;
14247;SDS011;7208;49.826;6.004;2022-12-07T15:40:12;3.97;;;2.40;;
14247;SDS011;7208;49.826;6.004;2022-12-07T15:42:39;4.17;;;2.53;;
14247;SDS011;7208;49.826;6.004;2022-12-07T15:45:05;3.87;;;2.60;;
14247;SDS011;7208;49.826;6.004;2022-12-07T15:47:33;5.00;;;3.60;;
14247;SDS011;7208;49.826;6.004;2022-12-07T15:50:01;6.43;;;3.47;;
14247;SDS011;7208;49.826;6.004;2022-12-07T15:52:27;3.03;;;2.73;;
14247;SDS011;7208;49.826;6.004;2022-12-07T15:54:53;3.90;;;2.60;;
14247;SDS011;7208;49.826;6.004;2022-12-07T15:57:19;4.63;;;2.63;;
14247;SDS011;7208;49.826;6.004;2022-12-07T15:59:45;6.67;;;3.00;;
14247;SDS011;7208;49.826;6.004;2022-12-07T16:02:11;4.37;;;2.23;;
14247;SDS011;7208;49.826;6.004;2022-12-07T16:04:37;3.50;;;2.43;;
14247;SDS011;7208;49.826;6.004;2022-12-07T16:07:03;4.70;;;2.73;;
14247;SDS011;7208;49.826;6.004;2022-12-07T16:09:29;3.67;;;2.30;;
14247;SDS011;7208;49.826;6.004;2022-12-07T16:11:55;4.33;;;2.53;;
14247;SDS011;7208;49.826;6.004;2022-12-07T16:14:21;4.70;;;2.50;;
14247;SDS011;7208;49.826;6.004;2022-12-07T16:16:47;4.40;;;2.37;;
14247;SDS011;7208;49.826;6.004;2022-12-07T16:19:13;3.20;;;2.40;;
14247;SDS011;7208;49.826;6.004;2022-12-07T16:21:39;4.53;;;2.63;;
14247;SDS011;7208;49.826;6.004;2022-12-07T16:24:07;3.90;;;3.38;;
14247;SDS011;7208;49.826;6.004;2022-12-07T16:26:33;6.13;;;3.03;;
14247;SDS011;7208;49.826;6.004;2022-12-07T16:28:59;3.43;;;2.10;;
14247;SDS011;7208;49.826;6.004;2022-12-07T16:31:26;5.28;;;3.10;;
14247;SDS011;7208;49.826;6.004;2022-12-07T16:33:53;5.63;;;2.60;;
14247;SDS011;7208;49.826;6.004;2022-12-07T16:36:19;3.50;;;2.73;;
14247;SDS011;7208;49.826;6.004;2022-12-07T16:38:47;3.10;;;2.07;;
14247;SDS011;7208;49.826;6.004;2022-12-07T16:41:13;4.07;;;2.90;;
14247;SDS011;7208;49.826;6.004;2022-12-07T16:43:39;3.10;;;2.60;;
14247;SDS011;7208;49.826;6.004;2022-12-07T16:46:06;2.60;;;2.33;;
14247;SDS011;7208;49.826;6.004;2022-12-07T16:48:34;3.63;;;2.43;;
14247;SDS011;7208;49.826;6.004;2022-12-07T16:51:02;3.77;;;2.33;;
14247;SDS011;7208;49.826;6.004;2022-12-07T16:53:29;2.33;;;2.13;;
14247;SDS011;7208;49.826;6.004;2022-12-07T16:55:55;3.10;;;2.80;;
14247;SDS011;7208;49.826;6.004;2022-12-07T16:58:21;2.47;;;2.27;;
14247;SDS011;7208;49.826;6.004;2022-12-07T17:00:47;7.50;;;2.37;;
14247;SDS011;7208;49.826;6.004;2022-12-07T17:03:13;3.70;;;2.83;;
14247;SDS011;7208;49.826;6.004;2022-12-07T17:05:43;3.20;;;2.57;;
14247;SDS011;7208;49.826;6.004;2022-12-07T17:08:09;6.33;;;2.50;;
14247;SDS011;7208;49.826;6.004;2022-12-07T17:10:36;4.50;;;2.63;;
14247;SDS011;7208;49.826;6.004;2022-12-07T17:13:03;2.90;;;2.60;;
14247;SDS011;7208;49.826;6.004;2022-12-07T17:15:56;3.80;;;3.07;;
14247;SDS011;7208;49.826;6.004;2022-12-07T17:18:22;2.60;;;2.30;;
14247;SDS011;7208;49.826;6.004;2022-12-07T17:20:48;10.07;;;3.57;;